createdAt,value
2019-01-30T00:01:07.705Z,18.00
2019-01-30T00:03:36.140Z,16.63
2019-01-30T00:06:05.385Z,14.93
2019-01-30T00:08:34.313Z,16.37
2019-01-30T00:11:07.556Z,13.53
2019-01-30T00:13:44.039Z,14.00
2019-01-30T00:16:19.641Z,12.40
2019-01-30T00:18:48.096Z,13.50
2019-01-30T00:21:18.628Z,12.10
2019-01-30T00:23:47.002Z,11.03
2019-01-30T00:26:15.556Z,10.77
2019-01-30T00:28:44.318Z,10.47
2019-01-30T00:31:12.925Z,11.30
2019-01-30T00:33:41.318Z,11.07
2019-01-30T00:36:10.550Z,11.87
2019-01-30T00:38:38.964Z,11.93
2019-01-30T00:41:10.327Z,10.57
2019-01-30T00:43:39.396Z,11.97
2019-01-30T00:46:07.996Z,10.10
2019-01-30T00:48:36.942Z,9.57
2019-01-30T00:51:06.077Z,9.13
2019-01-30T00:53:34.524Z,9.37
2019-01-30T00:56:03.225Z,8.07
2019-01-30T00:58:31.721Z,7.93
2019-01-30T01:01:00.196Z,7.60
2019-01-30T01:03:28.889Z,7.23
2019-01-30T01:05:58.511Z,8.03
2019-01-30T01:08:27.541Z,7.60
2019-01-30T01:10:56.073Z,8.07
2019-01-30T01:13:24.500Z,6.70
2019-01-30T01:15:55.488Z,6.60
2019-01-30T01:18:23.858Z,6.77
2019-01-30T01:20:52.291Z,7.20
2019-01-30T01:23:21.379Z,7.40
2019-01-30T01:25:49.894Z,7.57
2019-01-30T01:28:18.419Z,7.33
2019-01-30T01:30:47.099Z,7.10
2019-01-30T01:33:15.703Z,7.57
2019-01-30T01:35:44.128Z,7.13
2019-01-30T01:38:12.659Z,7.63
2019-01-30T01:40:41.311Z,7.30
2019-01-30T01:43:10.375Z,7.33
2019-01-30T01:45:38.907Z,7.93
2019-01-30T01:48:07.397Z,7.00
2019-01-30T01:50:36.235Z,7.37
2019-01-30T01:53:04.706Z,6.77
2019-01-30T01:55:33.136Z,7.70
2019-01-30T01:58:01.923Z,8.27
2019-01-30T02:00:35.667Z,7.53
2019-01-30T02:03:00.875Z,8.23
2019-01-30T02:05:29.271Z,7.43
2019-01-30T02:07:57.665Z,7.40
2019-01-30T02:10:26.310Z,7.40
2019-01-30T02:12:54.666Z,7.37
2019-01-30T02:15:23.825Z,8.03
2019-01-30T02:17:52.682Z,8.40
2019-01-30T02:20:23.740Z,8.57
2019-01-30T02:22:52.312Z,9.80
2019-01-30T02:25:20.887Z,9.90
2019-01-30T02:27:49.953Z,10.37
2019-01-30T02:30:24.235Z,10.67
2019-01-30T02:32:52.854Z,11.10
2019-01-30T02:35:22.359Z,11.40
2019-01-30T02:37:50.875Z,10.77
2019-01-30T02:40:22.987Z,10.40
2019-01-30T02:42:52.163Z,9.07
2019-01-30T02:45:25.659Z,8.83
2019-01-30T02:47:54.183Z,7.47
2019-01-30T02:50:22.725Z,6.63
2019-01-30T02:52:51.639Z,4.70
2019-01-30T02:55:20.776Z,6.13
2019-01-30T02:57:49.282Z,5.75
2019-01-30T03:00:24.176Z,3.40
2019-01-30T03:02:52.816Z,2.93
2019-01-30T03:05:21.866Z,2.63
2019-01-30T03:07:50.497Z,3.67
2019-01-30T03:10:19.451Z,3.30
2019-01-30T03:12:48.082Z,2.60
2019-01-30T03:15:17.406Z,2.27
2019-01-30T03:17:46.060Z,2.60
2019-01-30T03:20:17.918Z,2.97
2019-01-30T03:22:46.920Z,3.60
2019-01-30T03:25:15.757Z,3.10
2019-01-30T03:27:44.647Z,4.20
2019-01-30T03:30:25.941Z,3.40
2019-01-30T03:32:54.424Z,5.80
2019-01-30T03:35:22.964Z,5.80
2019-01-30T03:37:51.416Z,6.57
2019-01-30T03:40:20.121Z,8.90
2019-01-30T03:42:48.703Z,9.07
2019-01-30T03:45:19.433Z,10.50
2019-01-30T03:47:48.241Z,9.60
2019-01-30T03:50:17.218Z,6.37
2019-01-30T03:52:46.300Z,6.00
2019-01-30T03:55:18.075Z,4.40
2019-01-30T03:57:46.559Z,5.13
2019-01-30T04:00:17.573Z,4.20
2019-01-30T04:02:46.347Z,4.00
2019-01-30T04:05:15.324Z,4.30
2019-01-30T04:07:43.837Z,4.03
2019-01-30T04:10:15.322Z,4.20
2019-01-30T04:12:43.951Z,3.13
2019-01-30T04:15:13.146Z,3.17
2019-01-30T04:17:41.509Z,3.23
2019-01-30T04:20:11.458Z,3.10
2019-01-30T04:22:40.428Z,3.70
2019-01-30T04:25:09.470Z,3.40
2019-01-30T04:27:38.256Z,3.73
2019-01-30T04:30:11.369Z,4.33
2019-01-30T04:32:39.889Z,4.17
2019-01-30T04:35:08.464Z,3.40
2019-01-30T04:37:36.976Z,3.93
2019-01-30T04:40:07.708Z,3.57
2019-01-30T04:42:36.141Z,3.90
2019-01-30T04:45:06.535Z,3.50
2019-01-30T04:47:34.893Z,3.60
2019-01-30T04:50:03.956Z,3.23
2019-01-30T04:52:32.313Z,3.30
2019-01-30T04:55:00.765Z,3.50
2019-01-30T04:57:29.067Z,3.60
2019-01-30T04:59:57.522Z,3.27
2019-01-30T05:02:26.162Z,3.87
2019-01-30T05:04:55.185Z,3.57
2019-01-30T05:07:24.976Z,3.97
2019-01-30T05:09:53.435Z,4.00
2019-01-30T05:12:22.213Z,4.03
2019-01-30T05:14:50.685Z,4.60
2019-01-30T05:17:19.331Z,6.30
2019-01-30T05:19:48.202Z,4.93
2019-01-30T05:22:16.668Z,6.53
2019-01-30T05:24:45.226Z,6.27
2019-01-30T05:27:13.847Z,8.63
2019-01-30T05:29:42.761Z,9.67
2019-01-30T05:32:11.767Z,10.87
2019-01-30T05:34:40.729Z,9.50
2019-01-30T05:37:09.416Z,12.13
2019-01-30T05:39:38.098Z,11.00
2019-01-30T05:42:07.149Z,10.93
2019-01-30T05:44:35.845Z,10.73
2019-01-30T05:47:04.623Z,9.40
2019-01-30T05:49:33.083Z,10.30
2019-01-30T05:52:01.950Z,11.13
2019-01-30T05:54:30.982Z,11.37
2019-01-30T05:56:59.704Z,9.80
2019-01-30T05:59:28.965Z,11.17
2019-01-30T06:01:57.326Z,10.67
2019-01-30T06:04:25.872Z,9.23
2019-01-30T06:06:54.929Z,10.07
2019-01-30T06:09:23.856Z,9.17
2019-01-30T06:11:52.633Z,9.83
2019-01-30T06:14:21.749Z,9.20
2019-01-30T06:16:50.592Z,10.37
2019-01-30T06:19:20.656Z,9.93
2019-01-30T06:21:50.105Z,10.40
2019-01-30T06:24:18.669Z,11.43
2019-01-30T06:26:47.733Z,11.63
2019-01-30T06:29:16.445Z,11.83
2019-01-30T06:31:45.106Z,12.93
2019-01-30T06:34:13.418Z,12.17
2019-01-30T06:36:42.629Z,13.23
2019-01-30T06:39:11.161Z,11.60
2019-01-30T06:41:40.041Z,12.07
2019-01-30T06:44:08.498Z,12.77
2019-01-30T06:46:37.456Z,13.10
2019-01-30T06:49:05.749Z,13.47
2019-01-30T06:51:34.522Z,14.17
2019-01-30T06:54:03.065Z,14.17
2019-01-30T06:56:31.657Z,13.40
2019-01-30T06:59:00.338Z,12.70
2019-01-30T07:01:28.868Z,12.17
2019-01-30T07:03:57.465Z,14.00
2019-01-30T07:06:26.165Z,11.07
2019-01-30T07:08:55.036Z,9.80
2019-01-30T07:11:24.105Z,9.23
2019-01-30T07:13:52.789Z,9.57
2019-01-30T07:16:21.645Z,9.53
2019-01-30T07:18:50.676Z,9.80
2019-01-30T07:21:19.230Z,8.97
2019-01-30T07:23:48.025Z,9.47
2019-01-30T07:26:17.347Z,11.70
2019-01-30T07:28:46.877Z,10.10
2019-01-30T07:31:15.978Z,10.73
2019-01-30T07:33:44.996Z,14.53
2019-01-30T07:36:13.761Z,16.60
2019-01-30T07:38:43.128Z,20.87
2019-01-30T07:41:12.085Z,14.80
2019-01-30T07:43:40.840Z,13.37
2019-01-30T07:46:10.012Z,12.63
2019-01-30T07:48:38.674Z,13.77
2019-01-30T07:51:07.416Z,13.37
2019-01-30T07:53:36.036Z,12.80
2019-01-30T07:56:05.037Z,12.47
2019-01-30T07:58:33.744Z,10.60
2019-01-30T08:01:02.257Z,9.90
2019-01-30T08:03:31.149Z,10.95
2019-01-30T08:06:00.036Z,8.77
2019-01-30T08:08:28.676Z,8.60
2019-01-30T08:10:57.133Z,8.13
2019-01-30T08:13:25.696Z,8.07
2019-01-30T08:15:54.096Z,7.70
2019-01-30T08:18:23.046Z,7.67
2019-01-30T08:20:51.441Z,7.67
2019-01-30T08:23:20.161Z,7.90
2019-01-30T08:25:48.920Z,7.70
2019-01-30T08:28:17.778Z,8.23
2019-01-30T08:30:46.144Z,8.60
2019-01-30T08:33:14.869Z,8.67
2019-01-30T08:35:43.717Z,7.97
2019-01-30T08:38:12.092Z,8.80
2019-01-30T08:40:40.721Z,8.60
2019-01-30T08:43:10.339Z,8.47
2019-01-30T08:45:39.518Z,9.33
2019-01-30T08:48:08.051Z,10.17
2019-01-30T08:50:36.542Z,10.57
2019-01-30T08:53:05.026Z,10.00
2019-01-30T08:55:33.610Z,9.67
2019-01-30T08:58:02.080Z,10.77
2019-01-30T09:00:30.543Z,10.20
2019-01-30T09:02:59.047Z,10.90
2019-01-30T09:05:28.661Z,8.87
2019-01-30T09:07:57.295Z,8.20
2019-01-30T09:10:26.355Z,8.40
2019-01-30T09:12:54.861Z,9.00
2019-01-30T09:15:25.401Z,5.97
2019-01-30T09:17:53.951Z,5.17
2019-01-30T09:20:23.197Z,4.23
2019-01-30T09:22:52.081Z,5.10
2019-01-30T09:25:32.286Z,4.97
2019-01-30T09:28:03.845Z,5.90
2019-01-30T09:30:37.168Z,5.20
2019-01-30T09:33:10.342Z,4.50
2019-01-30T09:35:42.158Z,4.03
2019-01-30T09:38:10.714Z,4.30
2019-01-30T09:40:39.396Z,4.37
2019-01-30T09:43:08.396Z,4.13
2019-01-30T09:45:37.024Z,4.03
2019-01-30T09:48:06.706Z,9.53
2019-01-30T09:50:35.356Z,3.60
2019-01-30T09:53:04.649Z,4.40
2019-01-30T09:55:33.143Z,3.27
2019-01-30T09:58:01.594Z,2.60
2019-01-30T10:00:32.682Z,2.87
2019-01-30T10:03:01.233Z,3.67
2019-01-30T10:05:29.853Z,3.47
2019-01-30T10:07:58.254Z,3.03
2019-01-30T10:10:29.280Z,2.90
2019-01-30T10:12:57.913Z,3.53
2019-01-30T10:15:32.221Z,4.00
2019-01-30T10:18:00.737Z,4.37
2019-01-30T10:20:33.980Z,4.80
2019-01-30T10:23:02.493Z,3.90
2019-01-30T10:25:31.028Z,4.33
2019-01-30T10:27:59.521Z,2.97
2019-01-30T10:30:30.404Z,3.00
2019-01-30T10:32:59.112Z,3.10
2019-01-30T10:35:28.059Z,2.80
2019-01-30T10:37:56.658Z,3.27
2019-01-30T10:40:25.710Z,3.10
2019-01-30T10:42:57.501Z,2.63
2019-01-30T10:45:26.019Z,2.70
2019-01-30T10:47:54.673Z,3.87
2019-01-30T10:50:27.302Z,3.57
2019-01-30T10:52:55.937Z,2.80
2019-01-30T10:55:26.965Z,2.70
2019-01-30T10:57:57.458Z,2.40
2019-01-30T11:00:32.170Z,4.60
2019-01-30T11:03:00.733Z,3.97
2019-01-30T11:05:29.365Z,4.37
2019-01-30T11:07:57.981Z,3.50
2019-01-30T11:10:26.752Z,3.23
2019-01-30T11:12:55.540Z,2.10
2019-01-30T11:15:25.093Z,2.90
2019-01-30T11:17:53.498Z,2.10
2019-01-30T11:20:22.255Z,1.97
2019-01-30T11:22:53.465Z,2.37
2019-01-30T11:25:27.908Z,2.50
2019-01-30T11:27:56.952Z,2.30
2019-01-30T11:30:27.895Z,2.80
2019-01-30T11:32:56.980Z,2.60
2019-01-30T11:35:25.573Z,2.50
2019-01-30T11:37:54.262Z,2.20
2019-01-30T11:40:23.236Z,2.00
2019-01-30T11:42:52.157Z,2.43
2019-01-30T11:45:26.428Z,2.70
2019-01-30T11:47:55.016Z,2.50
2019-01-30T11:50:23.422Z,2.17
2019-01-30T11:52:51.987Z,2.07
2019-01-30T11:55:21.190Z,1.80
2019-01-30T11:57:51.387Z,2.20
2019-01-30T12:00:26.879Z,2.10
2019-01-30T12:02:55.567Z,2.97
2019-01-30T12:05:23.999Z,5.93
2019-01-30T12:07:52.477Z,4.83
2019-01-30T12:10:21.778Z,3.00
2019-01-30T12:12:50.325Z,1.77
2019-01-30T12:15:19.781Z,1.90
2019-01-30T12:17:48.332Z,2.40
2019-01-30T12:20:16.996Z,1.83
2019-01-30T12:22:45.909Z,1.47
2019-01-30T12:25:16.465Z,1.13
2019-01-30T12:27:46.088Z,1.60
2019-01-30T12:30:20.165Z,2.47
2019-01-30T12:32:48.681Z,1.50
2019-01-30T12:35:17.535Z,1.63
2019-01-30T12:37:46.100Z,1.50
2019-01-30T12:40:16.673Z,1.27
2019-01-30T12:42:45.625Z,1.80
2019-01-30T12:45:20.381Z,1.20
2019-01-30T12:47:48.809Z,1.60
2019-01-30T12:50:17.849Z,1.50
2019-01-30T12:52:48.797Z,2.10
2019-01-30T12:55:17.557Z,2.80
2019-01-30T12:57:46.025Z,1.80
2019-01-30T13:00:19.716Z,1.47
2019-01-30T13:02:48.449Z,0.80
2019-01-30T13:05:18.318Z,1.10
2019-01-30T13:07:48.032Z,1.47
2019-01-30T13:10:16.678Z,1.50
2019-01-30T13:12:45.210Z,2.53
2019-01-30T13:15:15.523Z,1.60
2019-01-30T13:17:46.567Z,2.00
2019-01-30T13:20:18.881Z,1.37
2019-01-30T13:22:47.387Z,2.03
2019-01-30T13:25:18.817Z,1.90
2019-01-30T13:27:47.192Z,1.50
2019-01-30T13:30:18.912Z,1.87
2019-01-30T13:32:47.208Z,2.07
2019-01-30T13:35:15.853Z,2.20
2019-01-30T13:37:44.250Z,1.87
2019-01-30T13:40:16.510Z,1.03
2019-01-30T13:42:44.907Z,0.63
2019-01-30T13:45:14.265Z,0.80
2019-01-30T13:47:43.794Z,1.40
2019-01-30T13:50:15.249Z,1.90
2019-01-30T13:52:43.720Z,2.03
2019-01-30T13:55:13.327Z,2.30
2019-01-30T13:57:41.858Z,3.03
2019-01-30T14:00:38.888Z,2.57
2019-01-30T14:03:07.815Z,3.80
2019-01-30T14:05:36.230Z,3.67
2019-01-30T14:08:06.208Z,2.73
2019-01-30T14:10:35.581Z,2.70
2019-01-30T14:13:04.129Z,3.13
2019-01-30T14:15:33.474Z,2.60
2019-01-30T14:18:01.989Z,3.37
2019-01-30T14:20:30.395Z,3.80
2019-01-30T14:22:59.129Z,3.30
2019-01-30T14:25:28.102Z,3.27
2019-01-30T14:27:57.204Z,3.67
2019-01-30T14:30:31.259Z,4.00
2019-01-30T14:32:59.677Z,3.90
2019-01-30T14:35:30.656Z,2.60
2019-01-30T14:37:59.636Z,3.03
2019-01-30T14:40:28.045Z,3.53
2019-01-30T14:42:56.474Z,3.20
2019-01-30T14:45:25.462Z,3.63
2019-01-30T14:47:54.744Z,4.17
2019-01-30T14:50:24.826Z,2.53
2019-01-30T14:52:53.338Z,4.10
2019-01-30T14:55:21.868Z,3.90
2019-01-30T14:57:51.022Z,4.23
2019-01-30T15:00:22.438Z,4.57
2019-01-30T15:02:51.213Z,4.80
2019-01-30T15:05:22.747Z,5.80
2019-01-30T15:07:51.492Z,6.90
2019-01-30T15:10:20.623Z,6.73
2019-01-30T15:12:49.408Z,6.67
2019-01-30T15:15:22.959Z,5.90
2019-01-30T15:17:51.993Z,7.87
2019-01-30T15:20:26.056Z,6.70
2019-01-30T15:22:55.597Z,6.90
2019-01-30T15:25:24.305Z,5.93
2019-01-30T15:27:52.907Z,6.47
2019-01-30T15:30:52.483Z,7.27
2019-01-30T15:33:21.449Z,9.50
2019-01-30T15:35:50.507Z,8.30
2019-01-30T15:38:20.849Z,9.00
2019-01-30T15:40:50.183Z,9.47
2019-01-30T15:43:19.182Z,7.93
2019-01-30T15:45:49.563Z,6.90
2019-01-30T15:48:23.683Z,7.23
2019-01-30T15:50:53.503Z,7.33
2019-01-30T15:53:24.185Z,7.43
2019-01-30T15:55:54.182Z,6.33
2019-01-30T15:58:22.568Z,5.43
2019-01-30T16:01:01.046Z,6.83
2019-01-30T16:03:30.862Z,7.00
2019-01-30T16:05:59.845Z,8.10
2019-01-30T16:08:29.197Z,7.90
2019-01-30T16:10:59.249Z,8.17
2019-01-30T16:13:28.253Z,7.60
2019-01-30T16:16:00.062Z,9.40
2019-01-30T16:18:29.102Z,8.57
2019-01-30T16:21:00.821Z,6.40
2019-01-30T16:23:30.567Z,7.23
2019-01-30T16:25:59.277Z,8.10
2019-01-30T16:28:27.815Z,8.37
2019-01-30T16:30:56.982Z,9.13
2019-01-30T16:33:30.165Z,7.13
2019-01-30T16:35:59.319Z,9.10
2019-01-30T16:38:27.826Z,10.33
2019-01-30T16:40:56.321Z,9.50
2019-01-30T16:43:24.905Z,8.57
2019-01-30T16:45:53.413Z,10.27
2019-01-30T16:48:22.078Z,11.10
2019-01-30T16:50:50.693Z,8.03
2019-01-30T16:53:20.373Z,8.20
2019-01-30T16:55:48.869Z,5.47
2019-01-30T16:58:17.701Z,4.50
2019-01-30T17:00:46.867Z,5.90
2019-01-30T17:03:16.353Z,5.50
2019-01-30T17:05:45.595Z,4.63
2019-01-30T17:08:14.365Z,5.77
2019-01-30T17:10:43.151Z,7.10
2019-01-30T17:13:12.860Z,7.23
2019-01-30T17:15:41.778Z,6.70
2019-01-30T17:18:16.187Z,9.10
2019-01-30T17:20:44.830Z,11.60
2019-01-30T17:23:13.585Z,9.73
2019-01-30T17:25:42.662Z,9.03
2019-01-30T17:28:12.474Z,14.30
2019-01-30T17:30:54.066Z,10.08
2019-01-30T17:33:23.923Z,6.83
2019-01-30T17:35:52.710Z,7.07
2019-01-30T17:38:21.867Z,5.73
2019-01-30T17:40:50.374Z,5.93
2019-01-30T17:43:18.965Z,4.40
2019-01-30T17:45:49.175Z,7.80
2019-01-30T17:48:18.393Z,6.47
2019-01-30T17:50:47.096Z,6.30
2019-01-30T17:53:16.245Z,6.43
2019-01-30T17:55:46.355Z,7.30
2019-01-30T17:58:15.848Z,6.70
2019-01-30T18:01:04.489Z,5.43
2019-01-30T18:03:33.652Z,4.70
2019-01-30T18:06:02.514Z,4.17
2019-01-30T18:08:31.308Z,4.50
2019-01-30T18:11:00.178Z,4.63
2019-01-30T18:13:28.758Z,4.77
2019-01-30T18:15:57.232Z,4.30
2019-01-30T18:18:25.638Z,4.60
2019-01-30T18:20:55.057Z,5.10
2019-01-30T18:23:23.961Z,5.70
2019-01-30T18:25:53.012Z,6.50
2019-01-30T18:28:21.945Z,4.63
2019-01-30T18:30:51.371Z,4.27
2019-01-30T18:33:20.196Z,4.57
2019-01-30T18:35:48.921Z,4.40
2019-01-30T18:38:18.077Z,4.80
2019-01-30T18:40:46.817Z,4.10
2019-01-30T18:43:21.020Z,4.07
2019-01-30T18:45:50.653Z,4.47
2019-01-30T18:48:20.444Z,5.73
2019-01-30T18:50:50.606Z,4.37
2019-01-30T18:53:20.216Z,5.40
2019-01-30T18:55:49.070Z,5.83
2019-01-30T18:58:18.462Z,5.93
2019-01-30T19:00:47.750Z,6.57
2019-01-30T19:03:18.948Z,6.10
2019-01-30T19:05:47.761Z,6.27
2019-01-30T19:08:17.580Z,6.13
2019-01-30T19:10:46.032Z,5.73
2019-01-30T19:13:14.621Z,6.27
2019-01-30T19:15:43.126Z,5.63
2019-01-30T19:18:13.741Z,4.20
2019-01-30T19:20:43.961Z,5.03
2019-01-30T19:23:12.512Z,4.63
2019-01-30T19:25:41.163Z,4.47
2019-01-30T19:28:09.869Z,4.50
2019-01-30T19:30:39.177Z,4.37
2019-01-30T19:33:10.078Z,5.37
2019-01-30T19:35:39.049Z,6.47
2019-01-30T19:38:09.373Z,5.90
2019-01-30T19:40:38.676Z,6.30
2019-01-30T19:43:07.149Z,5.47
2019-01-30T19:45:36.767Z,4.73
2019-01-30T19:48:07.106Z,3.97
2019-01-30T19:50:36.443Z,4.90
2019-01-30T19:53:06.804Z,4.30
2019-01-30T19:55:35.748Z,4.77
2019-01-30T19:58:06.332Z,5.23
2019-01-30T20:00:40.685Z,5.93
2019-01-30T20:03:12.270Z,3.60
2019-01-30T20:05:40.924Z,4.00
2019-01-30T20:08:09.676Z,4.30
2019-01-30T20:10:38.233Z,3.83
2019-01-30T20:13:06.881Z,3.33
2019-01-30T20:15:38.527Z,3.50
2019-01-30T20:18:07.846Z,3.90
2019-01-30T20:20:36.526Z,4.63
2019-01-30T20:23:06.582Z,4.70
2019-01-30T20:25:36.684Z,3.60
2019-01-30T20:28:05.892Z,4.90
2019-01-30T20:30:35.188Z,5.13
2019-01-30T20:33:04.190Z,5.23
2019-01-30T20:35:32.852Z,6.40
2019-01-30T20:38:01.513Z,7.60
2019-01-30T20:40:33.616Z,7.47
2019-01-30T20:43:03.210Z,4.70
2019-01-30T20:45:34.153Z,3.63
2019-01-30T20:48:08.037Z,3.80
2019-01-30T20:50:37.494Z,4.50
2019-01-30T20:53:06.358Z,3.90
2019-01-30T20:55:35.513Z,3.90
2019-01-30T20:58:04.859Z,4.03
2019-01-30T21:00:38.141Z,2.97
2019-01-30T21:03:07.726Z,2.30
2019-01-30T21:05:36.861Z,15.25
2019-01-30T21:08:07.506Z,3.57
2019-01-30T21:10:38.478Z,2.50
2019-01-30T21:13:08.381Z,2.50
2019-01-30T21:15:37.948Z,3.10
2019-01-30T21:18:07.336Z,2.90
2019-01-30T21:20:35.925Z,3.23
2019-01-30T21:23:05.329Z,3.60
2019-01-30T21:25:33.892Z,3.50
2019-01-30T21:28:02.250Z,3.43
2019-01-30T21:30:33.542Z,3.30
2019-01-30T21:33:02.273Z,3.80
2019-01-30T21:35:32.298Z,3.10
2019-01-30T21:38:01.409Z,4.70
2019-01-30T21:40:29.928Z,3.60
2019-01-30T21:42:59.529Z,3.87
2019-01-30T21:45:28.279Z,3.57
2019-01-30T21:47:56.801Z,2.77
2019-01-30T21:50:25.456Z,2.07
2019-01-30T21:52:54.085Z,1.80
2019-01-30T21:55:23.717Z,2.50
2019-01-30T21:57:52.442Z,1.40
2019-01-30T22:00:25.966Z,1.50
2019-01-30T22:02:54.849Z,1.93
2019-01-30T22:05:23.951Z,1.90
2019-01-30T22:08:00.600Z,1.90
2019-01-30T22:10:25.361Z,2.03
2019-01-30T22:12:54.012Z,1.97
2019-01-30T22:15:22.749Z,1.70
2019-01-30T22:17:51.057Z,1.67
2019-01-30T22:20:23.701Z,2.00
2019-01-30T22:22:55.933Z,1.67
2019-01-30T22:25:25.234Z,1.40
2019-01-30T22:27:53.750Z,1.30
2019-01-30T22:30:33.947Z,3.33
2019-01-30T22:33:02.304Z,1.47
2019-01-30T22:35:31.181Z,2.30
2019-01-30T22:37:59.685Z,1.70
2019-01-30T22:40:29.065Z,1.43
2019-01-30T22:42:58.753Z,1.50
2019-01-30T22:45:27.221Z,1.90
2019-01-30T22:47:55.525Z,2.13
2019-01-30T22:50:24.233Z,1.83
2019-01-30T22:52:54.014Z,2.93
2019-01-30T22:55:24.194Z,1.73
2019-01-30T22:57:52.581Z,2.13
2019-01-30T23:00:58.468Z,2.00
2019-01-30T23:03:41.545Z,1.77
2019-01-30T23:06:21.744Z,1.90
2019-01-30T23:09:31.247Z,1.90
2019-01-30T23:12:36.279Z,1.60
2019-01-30T23:15:21.248Z,1.60
2019-01-30T23:18:08.556Z,2.03
2019-01-30T23:20:45.756Z,1.80
2019-01-30T23:23:52.557Z,1.53
2019-01-30T23:26:41.393Z,1.67
2019-01-30T23:29:35.218Z,1.27
2019-01-30T23:32:18.483Z,0.70
2019-01-30T23:35:29.101Z,0.70
2019-01-30T23:38:50.421Z,0.63
2019-01-30T23:41:58.819Z,0.70
2019-01-30T23:44:52.215Z,0.70
2019-01-30T23:48:01.602Z,0.63
2019-01-30T23:50:50.965Z,0.60
2019-01-30T23:53:49.067Z,0.90
2019-01-30T23:56:39.708Z,1.10
2019-01-30T23:59:46.473Z,1.00
